createdAt,value
2018-04-01T00:47:20.354Z,93906.45
2018-04-01T00:49:52.834Z,93904.83
2018-04-01T00:52:25.297Z,93905.44
2018-04-01T00:54:57.783Z,93910.72
2018-04-01T00:57:30.303Z,93905.03
2018-04-01T01:00:02.779Z,93912.66
2018-04-01T02:30:53.768Z,94025.23
2018-04-01T02:33:26.206Z,94058.13
2018-04-01T02:35:58.686Z,94031.30
2018-04-01T02:38:31.157Z,94006.89
2018-04-01T02:41:03.642Z,93996.38
2018-04-01T02:43:36.097Z,94014.75
2018-04-01T03:47:55.998Z,94051.53
2018-04-01T03:50:28.467Z,94055.97
2018-04-01T03:53:00.950Z,94062.56
2018-04-01T03:55:33.421Z,94056.59
2018-04-01T03:58:05.914Z,94056.18
2018-04-01T05:02:28.170Z,94127.22
2018-04-01T05:05:00.624Z,94120.37
2018-04-01T05:07:33.101Z,94131.48
2018-04-01T05:10:05.578Z,94143.44
2018-04-01T05:12:38.046Z,94156.94
2018-04-01T05:15:10.556Z,94144.55
2018-04-01T05:17:43.044Z,94151.19
2018-04-01T05:20:15.537Z,94147.55
2018-04-01T05:22:48.761Z,94150.91
2018-04-01T05:25:21.245Z,94156.08
2018-04-01T05:27:53.694Z,94159.53
2018-04-01T05:30:26.943Z,94169.48
2018-04-01T05:32:59.437Z,94171.42
2018-04-01T05:35:31.901Z,94175.55
2018-04-01T05:38:04.405Z,94178.47
2018-04-01T05:40:36.897Z,94179.38
2018-04-01T05:43:09.476Z,94185.87
2018-04-01T05:45:41.965Z,94184.97
2018-04-01T05:48:14.437Z,94195.06
2018-04-01T05:50:46.908Z,94190.25
2018-04-01T05:53:19.378Z,94191.69
2018-04-01T05:55:52.682Z,94197.80
2018-04-01T05:58:25.174Z,94199.52
2018-04-01T06:00:57.649Z,94208.25
2018-04-01T06:03:30.160Z,94214.75
2018-04-01T06:06:02.641Z,94217.73
2018-04-01T06:08:35.102Z,94209.13
2018-04-01T06:11:07.586Z,94209.53
2018-04-01T06:13:40.033Z,94222.22
2018-04-01T06:16:12.521Z,94229.03
2018-04-01T06:18:45.018Z,94236.44
2018-04-01T06:21:17.509Z,94225.17
2018-04-01T06:23:50.738Z,94239.48
2018-04-01T06:26:23.227Z,94235.31
2018-04-01T06:28:55.689Z,94238.95
2018-04-01T06:31:28.157Z,94243.73
2018-04-01T06:34:00.635Z,94240.17
2018-04-01T06:36:33.111Z,94265.55
2018-04-01T06:39:05.575Z,94250.22
2018-04-01T06:41:38.051Z,94254.49
2018-04-01T06:44:10.525Z,94259.77
2018-04-01T06:46:43.005Z,94266.44
2018-04-01T06:49:15.478Z,94270.64
2018-04-01T06:51:47.956Z,94266.06
2018-04-01T06:54:20.420Z,94269.20
2018-04-01T06:56:52.893Z,94268.98
2018-04-01T06:59:25.371Z,94280.57
2018-04-01T07:01:58.589Z,94279.66
2018-04-01T07:04:31.070Z,94294.98
2018-04-01T07:07:03.533Z,94283.62
2018-04-01T07:09:36.025Z,94281.20
2018-04-01T07:12:08.485Z,94286.72
2018-04-01T07:14:40.962Z,94295.17
2018-04-01T07:17:13.422Z,94283.42
2018-04-01T07:19:45.896Z,94285.86
2018-04-01T07:22:18.372Z,94310.48
2018-04-01T07:24:50.830Z,94297.91
2018-04-01T07:27:23.311Z,94301.49
2018-04-01T07:29:55.765Z,94305.48
2018-04-01T07:32:28.241Z,94303.18
2018-04-01T07:35:00.702Z,94312.03
2018-04-01T07:37:33.187Z,94312.56
2018-04-01T07:40:05.642Z,94303.81
2018-04-01T15:37:58.390Z,94585.40
2018-04-01T15:40:30.862Z,94625.01
2018-04-01T15:43:03.315Z,94624.12
2018-04-01T15:45:36.569Z,94659.34
2018-04-01T15:48:09.021Z,94594.25
2018-04-01T15:50:41.506Z,94620.03
2018-04-01T15:53:13.965Z,94600.33
2018-04-01T15:55:46.437Z,94604.33
2018-04-01T15:58:18.939Z,94615.34
2018-04-01T16:00:51.385Z,94633.02
2018-04-01T16:03:23.863Z,94623.67
2018-04-01T16:05:56.312Z,94621.74
2018-04-01T16:08:29.594Z,94620.56
2018-04-01T16:11:02.037Z,94637.20
2018-04-01T16:13:34.526Z,94624.38
2018-04-01T16:16:06.990Z,94632.19
2018-04-01T16:18:39.550Z,94633.67
2018-04-01T16:21:12.033Z,94625.08
2018-04-01T16:23:44.504Z,94634.38
2018-04-01T16:26:17.063Z,94638.30
2018-04-01T16:28:49.612Z,94629.18
2018-04-01T16:31:22.840Z,94636.01
2018-04-01T16:33:55.321Z,94631.30
2018-04-01T16:36:27.820Z,94642.02
2018-04-01T16:39:00.317Z,94661.16
2018-04-01T16:41:33.550Z,94649.84
2018-04-01T16:44:06.047Z,94657.95
2018-04-01T16:46:38.498Z,94674.52
2018-04-01T16:49:11.963Z,94666.36
2018-04-01T16:51:45.213Z,94675.71
2018-04-01T16:54:17.699Z,94676.09
2018-04-01T16:56:50.170Z,94677.50
2018-04-01T16:59:22.652Z,94694.50
2018-04-01T17:01:55.141Z,94695.13
2018-04-01T17:04:27.605Z,94707.31
2018-04-01T17:07:03.658Z,94693.38
2018-04-01T17:09:36.253Z,94702.33
2018-04-01T17:12:08.633Z,94707.58
2018-04-01T17:14:41.089Z,94714.39
2018-04-01T17:17:13.996Z,94695.95
2018-04-01T17:19:46.509Z,94714.22
2018-04-01T17:22:19.055Z,94713.23
2018-04-01T17:24:52.531Z,94711.69
2018-04-01T17:27:25.214Z,94707.09
2018-04-01T17:29:58.910Z,94712.65
2018-04-01T17:32:31.440Z,94724.87
2018-04-01T17:35:03.899Z,94731.02
2018-04-01T17:37:36.373Z,94732.39
2018-04-01T17:40:08.903Z,94730.49
2018-04-01T17:42:41.386Z,94747.34
2018-04-01T17:45:13.904Z,94740.69
2018-04-01T17:47:46.376Z,94760.81
2018-04-01T17:50:19.669Z,94772.06
2018-04-01T17:52:52.165Z,94756.98
2018-04-01T17:55:24.645Z,94763.42
2018-04-01T17:57:57.114Z,94761.14
2018-04-01T18:00:29.581Z,94781.72
2018-04-01T18:03:02.061Z,94781.13
2018-04-01T18:05:34.585Z,94785.77
2018-04-01T18:08:07.097Z,94789.27
2018-04-01T18:10:39.662Z,94805.29
2018-04-01T18:13:12.140Z,94788.91
2018-04-01T18:15:45.780Z,94805.16
2018-04-01T18:18:18.243Z,94814.45
2018-04-01T18:20:50.726Z,94815.30
2018-04-01T18:23:23.208Z,94815.95
2018-04-01T18:25:55.670Z,94824.95
2018-04-01T18:28:28.161Z,94828.23
2018-04-01T18:31:00.605Z,94830.88
2018-04-01T18:33:33.085Z,94819.41
2018-04-01T18:36:06.373Z,94838.61
2018-04-01T18:38:38.806Z,94838.14
2018-04-01T18:41:11.433Z,94848.02
2018-04-01T18:43:44.674Z,94857.27
2018-04-01T18:46:17.133Z,94845.97
2018-04-01T18:48:49.626Z,94881.75
2018-04-01T18:51:22.079Z,94864.36
2018-04-01T18:53:54.566Z,94854.34
2018-04-01T18:56:27.033Z,94862.66
2018-04-01T18:58:59.516Z,94861.52
2018-04-01T19:01:32.009Z,94871.03
2018-04-01T19:04:04.481Z,94870.67
2018-04-01T19:06:36.936Z,94876.86
2018-04-01T19:09:09.441Z,94884.05
2018-04-01T19:11:41.942Z,94892.95
2018-04-01T19:14:15.194Z,94880.59
2018-04-01T19:17:14.094Z,94894.69
2018-04-01T19:19:47.359Z,94889.41
2018-04-01T19:22:20.683Z,94906.06
2018-04-01T19:24:53.957Z,94904.92
2018-04-01T19:27:27.244Z,94901.46
2018-04-01T19:30:00.486Z,94914.66
2018-04-01T19:32:33.749Z,94907.09
2018-04-01T19:35:07.002Z,94912.05
2018-04-01T19:37:41.052Z,94907.82
2018-04-01T19:40:14.350Z,94917.31
2018-04-01T19:42:48.346Z,94914.55
2018-04-01T19:45:21.598Z,94924.34
2018-04-01T19:47:54.880Z,94915.78
2018-04-01T19:50:28.121Z,94919.74
2018-04-01T19:53:01.385Z,94920.65
2018-04-01T19:55:35.421Z,94922.96
2018-04-01T19:58:08.664Z,94935.66
2018-04-01T20:00:41.935Z,94946.62
2018-04-01T20:03:15.210Z,94936.72
2018-04-01T20:05:48.462Z,94960.37
2018-04-01T20:08:21.724Z,94938.03
2018-04-01T20:10:54.969Z,94965.33
2018-04-01T20:13:28.250Z,94952.95
2018-04-01T20:16:02.267Z,94961.45
2018-04-01T20:18:36.306Z,94953.65
2018-04-01T20:21:09.571Z,94967.25
2018-04-01T20:23:42.841Z,94961.16
2018-04-01T20:26:16.121Z,94955.70
2018-04-01T20:28:49.380Z,94968.95
2018-04-01T20:31:22.649Z,94966.64
2018-04-01T20:33:56.665Z,94971.36
2018-04-01T20:36:30.702Z,94966.41
2018-04-01T20:39:03.948Z,94969.46
2018-04-01T20:41:37.273Z,94967.23
2018-04-01T20:44:11.258Z,94978.11
2018-04-01T20:46:45.297Z,94975.30
2018-04-01T20:49:18.541Z,94983.63
2018-04-01T20:51:51.817Z,94984.77
2018-04-01T20:54:25.065Z,94996.88
2018-04-01T20:56:59.130Z,94992.02
2018-04-01T20:59:32.357Z,94992.52
2018-04-01T21:02:06.513Z,94976.51
2018-04-01T21:04:39.820Z,94991.44
2018-04-01T21:07:13.098Z,94988.38
2018-04-01T21:09:46.357Z,94995.30
2018-04-01T21:12:19.601Z,95003.72
2018-04-01T21:14:52.877Z,94995.48
2018-04-01T21:17:26.118Z,94995.80
2018-04-01T21:19:59.385Z,94995.39
2018-04-01T21:22:32.665Z,95002.89
2018-04-01T21:25:06.700Z,95007.84
2018-04-01T21:27:39.940Z,94994.83
2018-04-01T21:30:13.217Z,95001.25
2018-04-01T21:32:47.335Z,95006.12
2018-04-01T21:35:20.617Z,95005.38
2018-04-01T21:37:53.862Z,95015.53
2018-04-01T21:40:27.156Z,95013.47
2018-04-01T21:43:00.393Z,95010.75
2018-04-01T21:45:33.658Z,94998.05
2018-04-01T21:48:06.926Z,95015.70
2018-04-01T21:50:40.173Z,94997.08
2018-04-01T21:53:13.434Z,95033.28
2018-04-01T21:55:46.704Z,95024.19
2018-04-01T21:58:19.945Z,95018.09
2018-04-01T22:00:53.217Z,95018.41
2018-04-01T22:03:26.458Z,95027.64
2018-04-01T22:06:00.505Z,95031.05
2018-04-01T22:08:33.755Z,95041.60
2018-04-01T22:11:07.012Z,95029.23
2018-04-01T22:13:40.259Z,95025.67
2018-04-01T22:16:14.298Z,95022.95
2018-04-01T22:18:47.540Z,95033.00
2018-04-01T22:21:20.803Z,95038.87
2018-04-01T22:23:54.053Z,95024.85
2018-04-01T22:26:28.096Z,95021.16
2018-04-01T22:29:01.344Z,95023.87
2018-04-01T22:31:34.610Z,95013.91
2018-04-01T22:34:07.849Z,95025.45
2018-04-01T22:36:41.894Z,95017.22
2018-04-01T22:39:15.185Z,95012.08
2018-04-01T22:41:48.425Z,95007.71
2018-04-01T22:44:21.690Z,95018.13
2018-04-01T22:46:54.954Z,95010.63
2018-04-01T22:49:28.207Z,95004.94
2018-04-01T22:52:01.473Z,95016.39
2018-04-01T22:54:34.755Z,95006.34
2018-04-01T22:57:08.018Z,95017.77
2018-04-01T22:59:41.289Z,95008.48
2018-04-01T23:02:14.528Z,95014.08
2018-04-01T23:04:47.799Z,95009.22
2018-04-01T23:07:21.043Z,95011.94
2018-04-01T23:09:54.323Z,95014.31
2018-04-01T23:12:27.565Z,95012.50
2018-04-01T23:15:01.597Z,95015.80
